Time;durP1;ratioP1;P1;durP2;ratioP2;P2;SDS_P1;SDS_P2;PMS_P1;PMS_P2;Temp;Humidity;BMP_temperature;BMP_pressure;BME280_temperature;BME280_humidity;BME280_pressure;Samples;Min_cycle;Max_cycle;Signal;HPM_P1;HPM_P2
2021/01/20 00:02:06;;;;;;;8.57;3.30;;;6.90;88.80;;;;;;5127787;27;20026;-80
2021/01/20 00:04:31;;;;;;;7.43;3.42;;;6.90;88.50;;;;;;5118445;27;20058;-80
2021/01/20 00:06:57;;;;;;;9.48;3.15;;;6.80;88.40;;;;;;5113117;28;20106;-81
2021/01/20 00:09:23;;;;;;;10.38;3.28;;;6.80;88.60;;;;;;5117687;27;20027;-80
2021/01/20 00:11:48;;;;;;;11.18;3.67;;;6.80;88.30;;;;;;5118255;27;20023;-80
2021/01/20 00:14:15;;;;;;;10.02;3.75;;;6.80;88.30;;;;;;5114353;28;20076;-80
2021/01/20 00:16:41;;;;;;;11.30;3.30;;;6.80;88.20;;;;;;5103004;27;20361;-80
2021/01/20 00:19:07;;;;;;;10.77;3.25;;;6.80;88.50;;;;;;5101186;27;20030;-80
2021/01/20 00:21:33;;;;;;;10.77;3.95;;;6.80;88.50;;;;;;5118111;27;20024;-80
2021/01/20 00:23:59;;;;;;;10.65;3.70;;;6.70;87.80;;;;;;5136462;27;20034;-80
2021/01/20 00:26:24;;;;;;;11.38;3.65;;;6.70;88.00;;;;;;5108839;28;20027;-80
2021/01/20 00:28:50;;;;;;;9.23;3.80;;;6.70;87.90;;;;;;5115832;28;20032;-81
2021/01/20 00:31:16;;;;;;;11.48;3.58;;;6.70;88.00;;;;;;5115883;28;20473;-80
2021/01/20 00:33:41;;;;;;;8.82;3.60;;;6.70;88.00;;;;;;5097705;28;20429;-81
2021/01/20 00:36:07;;;;;;;6.97;3.88;;;6.70;87.80;;;;;;5094955;28;20051;-80
2021/01/20 00:38:33;;;;;;;8.18;3.40;;;6.70;87.60;;;;;;5115758;28;20482;-80
2021/01/20 00:40:59;;;;;;;8.18;3.78;;;6.70;87.70;;;;;;5115476;28;20176;-80
2021/01/20 00:43:24;;;;;;;9.98;4.10;;;6.70;87.70;;;;;;5115327;28;20074;-80
2021/01/20 00:45:51;;;;;;;8.70;3.90;;;6.70;87.70;;;;;;5112027;28;20028;-81
2021/01/20 00:48:16;;;;;;;7.82;3.50;;;6.70;87.70;;;;;;5097272;28;20032;-80
2021/01/20 00:50:42;;;;;;;7.93;4.30;;;6.70;87.70;;;;;;5115455;28;20023;-80
2021/01/20 00:53:07;;;;;;;9.85;4.00;;;6.60;87.70;;;;;;5097058;28;20499;-80
2021/01/20 00:55:33;;;;;;;11.10;4.22;;;6.60;87.80;;;;;;5114934;28;20464;-79
2021/01/20 00:57:58;;;;;;;9.73;4.40;;;6.60;87.90;;;;;;5096600;28;20633;-80
2021/01/20 01:00:24;;;;;;;10.30;4.10;;;6.60;88.00;;;;;;5115204;28;20072;-80
2021/01/20 01:02:50;;;;;;;10.85;4.78;;;6.60;88.10;;;;;;5110265;28;20036;-80
2021/01/20 01:05:16;;;;;;;9.00;4.28;;;6.60;88.10;;;;;;5114952;28;20081;-80
2021/01/20 01:07:42;;;;;;;9.98;4.30;;;6.60;88.10;;;;;;5114968;28;20080;-80
2021/01/20 01:10:08;;;;;;;11.27;4.60;;;6.70;88.00;;;;;;5096768;28;20033;-80
2021/01/20 01:12:34;;;;;;;8.55;4.72;;;6.70;87.90;;;;;;5079784;28;20024;-80
2021/01/20 01:15:00;;;;;;;8.68;4.32;;;6.70;88.00;;;;;;5096718;28;20057;-80
2021/01/20 01:17:26;;;;;;;12.73;4.38;;;6.70;88.00;;;;;;5115106;28;20518;-80
2021/01/20 01:19:52;;;;;;;13.93;4.85;;;6.80;88.00;;;;;;5096618;28;20391;-80
2021/01/20 01:22:17;;;;;;;7.97;4.68;;;6.80;87.90;;;;;;5096483;28;20031;-80
2021/01/20 01:24:43;;;;;;;9.85;4.35;;;6.80;87.90;;;;;;5079457;28;20065;-80
2021/01/20 01:27:09;;;;;;;8.65;4.57;;;6.80;87.90;;;;;;5114623;28;20500;-80
2021/01/20 01:29:34;;;;;;;6.50;4.05;;;6.80;87.60;;;;;;5114386;28;20115;-80
2021/01/20 01:32:00;;;;;;;7.00;4.55;;;6.80;87.60;;;;;;5114714;28;20028;-80
2021/01/20 01:34:25;;;;;;;8.80;4.40;;;6.80;87.60;;;;;;5114526;28;20051;-80
2021/01/20 01:36:51;;;;;;;7.63;4.03;;;6.90;87.60;;;;;;5114645;28;20072;-80
2021/01/20 01:39:16;;;;;;;8.90;4.75;;;6.90;87.60;;;;;;5087427;28;20072;-80
2021/01/20 01:41:42;;;;;;;7.25;4.15;;;6.90;87.50;;;;;;5113156;27;20047;-80
2021/01/20 01:44:09;;;;;;;9.73;4.05;;;6.90;87.40;;;;;;5098677;27;20030;-80
2021/01/20 01:46:35;;;;;;;7.10;3.75;;;6.90;87.40;;;;;;5115653;27;20042;-80
2021/01/20 01:49:00;;;;;;;6.38;3.80;;;6.90;87.40;;;;;;5116487;27;20119;-80
2021/01/20 01:51:26;;;;;;;9.63;3.78;;;7.00;87.20;;;;;;5116252;27;20027;-80
2021/01/20 01:53:53;;;;;;;7.68;3.83;;;7.00;87.00;;;;;;5133947;27;20019;-80
2021/01/20 01:56:19;;;;;;;6.50;3.50;;;6.90;86.70;;;;;;5095767;28;20022;-80
2021/01/20 01:58:49;;;;;;;10.05;3.50;;;6.90;86.50;;;;;;5095887;28;20540;-80
2021/01/20 02:01:16;;;;;;;6.00;3.13;;;7.00;86.60;;;;;;5114135;28;20032;-80
2021/01/20 02:03:41;;;;;;;6.90;3.35;;;7.00;86.60;;;;;;5114059;28;20440;-80
2021/01/20 02:06:07;;;;;;;8.50;3.65;;;7.00;86.50;;;;;;5086424;28;20055;-80
2021/01/20 02:08:33;;;;;;;7.88;3.53;;;7.00;86.30;;;;;;5095169;28;20035;-81
2021/01/20 02:11:09;;;;;;;5.97;3.13;;;7.00;86.30;;;;;;5106780;27;20375;-80
2021/01/20 02:13:45;;;;;;;6.20;3.05;;;7.00;85.80;;;;;;5134398;27;20042;-80
2021/01/20 02:16:23;;;;;;;8.65;3.20;;;7.00;86.10;;;;;;5134291;27;20035;-80
2021/01/20 02:18:51;;;;;;;4.65;2.60;;;7.00;85.90;;;;;;5132393;27;20041;-80
2021/01/20 02:21:34;;;;;;;5.13;2.67;;;7.00;85.70;;;;;;5113732;28;20031;-80
2021/01/20 02:24:07;;;;;;;5.78;3.00;;;7.00;85.50;;;;;;5095795;28;20028;-80
2021/01/20 02:26:57;;;;;;;6.35;3.42;;;7.00;85.60;;;;;;5113792;28;20011;-80
2021/01/20 02:29:30;;;;;;;4.82;2.67;;;7.10;85.20;;;;;;5113866;28;20107;-80
2021/01/20 02:31:56;;;;;;;6.70;3.00;;;7.10;85.10;;;;;;5095499;28;20031;-80
2021/01/20 02:34:22;;;;;;;5.22;2.42;;;7.10;85.00;;;;;;5113528;28;20031;-80
2021/01/20 02:36:52;;;;;;;7.63;2.80;;;7.00;84.90;;;;;;5113545;28;20476;-80
2021/01/20 02:39:19;;;;;;;4.95;2.88;;;7.00;85.10;;;;;;5095217;28;20031;-80
2021/01/20 02:41:44;;;;;;;7.50;2.80;;;7.00;84.80;;;;;;5112221;28;20031;-80
2021/01/20 02:44:10;;;;;;;5.90;3.17;;;7.10;84.80;;;;;;5112142;28;20024;-80
2021/01/20 02:46:37;;;;;;;7.60;3.60;;;7.00;84.90;;;;;;5113253;28;20035;-80
2021/01/20 02:49:03;;;;;;;7.05;3.10;;;7.10;84.90;;;;;;5113535;28;20051;-80
2021/01/20 02:51:47;;;;;;;7.57;3.70;;;7.10;84.90;;;;;;5062034;28;20410;-81
2021/01/20 02:54:15;;;;;;;5.00;3.17;;;7.00;85.00;;;;;;5095141;28;20023;-79
2021/01/20 02:56:45;;;;;;;7.80;3.47;;;7.00;85.00;;;;;;5101643;28;20062;-80
2021/01/20 02:59:12;;;;;;;5.95;3.05;;;7.10;85.10;;;;;;5112986;28;20078;-80
2021/01/20 03:01:42;;;;;;;7.63;3.95;;;7.00;85.10;;;;;;5121351;28;20027;-80
2021/01/20 03:04:09;;;;;;;6.70;3.55;;;7.00;85.30;;;;;;5112370;28;20064;-80
2021/01/20 03:06:35;;;;;;;10.10;3.38;;;7.00;85.40;;;;;;5112689;28;20035;-80
2021/01/20 03:09:02;;;;;;;7.03;2.95;;;7.00;85.20;;;;;;5077323;28;20028;-80
2021/01/20 03:11:28;;;;;;;6.63;2.72;;;7.00;85.40;;;;;;5112601;28;20028;-80
2021/01/20 03:13:54;;;;;;;4.10;2.53;;;7.00;85.40;;;;;;5112459;28;20031;-80
2021/01/20 03:16:25;;;;;;;5.55;3.15;;;7.00;85.30;;;;;;5114393;28;20388;-80
2021/01/20 03:18:51;;;;;;;5.50;2.70;;;7.00;85.50;;;;;;5103171;27;20027;-80
2021/01/20 03:21:16;;;;;;;4.47;2.65;;;7.00;85.60;;;;;;5107056;27;20426;-80
2021/01/20 03:23:42;;;;;;;5.18;2.88;;;6.90;85.40;;;;;;5119455;27;20027;-80
2021/01/20 03:26:08;;;;;;;6.72;3.67;;;7.00;85.70;;;;;;5137646;27;20023;-80
2021/01/20 03:28:33;;;;;;;5.18;3.17;;;7.00;85.80;;;;;;5119382;27;20076;-80
2021/01/20 03:30:59;;;;;;;7.03;3.42;;;7.00;86.00;;;;;;5106495;28;20070;-80
2021/01/20 03:33:25;;;;;;;7.03;3.40;;;6.90;86.00;;;;;;5098800;28;20081;-80
2021/01/20 03:35:50;;;;;;;6.18;3.13;;;6.90;86.20;;;;;;5103085;27;20046;-80
2021/01/20 03:38:16;;;;;;;6.10;3.10;;;7.00;86.20;;;;;;5102177;27;20395;-80
2021/01/20 03:40:41;;;;;;;10.07;3.60;;;7.00;86.10;;;;;;5136513;27;20414;-80
2021/01/20 03:43:07;;;;;;;8.15;4.38;;;7.00;85.90;;;;;;5079574;27;20027;-80
2021/01/20 03:45:33;;;;;;;8.45;3.60;;;7.10;85.90;;;;;;5090110;28;20032;-80
2021/01/20 03:47:58;;;;;;;7.25;3.70;;;7.10;85.60;;;;;;5094907;28;20047;-80
2021/01/20 03:50:24;;;;;;;6.88;2.90;;;7.10;85.50;;;;;;5078394;28;20028;-80
2021/01/20 03:52:49;;;;;;;5.38;2.83;;;7.20;85.50;;;;;;5094867;28;20024;-80
2021/01/20 03:55:15;;;;;;;5.65;3.10;;;7.20;85.40;;;;;;5105744;28;20028;-80
2021/01/20 03:57:41;;;;;;;4.18;2.83;;;7.20;85.50;;;;;;5115303;28;20490;-80
2021/01/20 04:00:07;;;;;;;6.10;2.83;;;7.20;85.70;;;;;;5115037;28;20024;-79
2021/01/20 04:02:32;;;;;;;8.23;3.05;;;7.30;85.80;;;;;;5103356;27;20015;-79
2021/01/20 04:04:58;;;;;;;5.57;3.10;;;7.20;85.90;;;;;;5118608;27;20031;-80
2021/01/20 04:07:24;;;;;;;4.78;2.88;;;7.30;86.10;;;;;;5101541;28;20031;-80
2021/01/20 04:09:49;;;;;;;6.80;2.97;;;7.30;86.20;;;;;;5115795;28;20488;-80
2021/01/20 04:12:15;;;;;;;4.10;2.35;;;7.30;86.40;;;;;;5103283;28;20084;-80
2021/01/20 04:14:40;;;;;;;4.85;2.83;;;7.20;86.50;;;;;;5119248;27;20072;-79
2021/01/20 04:17:06;;;;;;;3.47;2.30;;;7.30;86.50;;;;;;5118054;27;20034;-80
2021/01/20 04:19:31;;;;;;;4.90;2.83;;;7.30;86.50;;;;;;5098874;27;20072;-80
2021/01/20 04:21:57;;;;;;;5.72;2.70;;;7.30;86.30;;;;;;5110541;27;20066;-80
2021/01/20 04:24:23;;;;;;;6.30;2.92;;;7.30;86.10;;;;;;5118271;27;20027;-80
2021/01/20 04:26:48;;;;;;;5.85;2.95;;;7.30;85.90;;;;;;5117761;27;20084;-79
2021/01/20 04:29:16;;;;;;;5.32;2.92;;;7.30;85.90;;;;;;5119423;27;20047;-80
2021/01/20 04:31:42;;;;;;;7.30;2.83;;;7.40;85.00;;;;;;5115276;28;20380;-80
2021/01/20 04:34:07;;;;;;;4.70;2.85;;;7.40;85.50;;;;;;5107176;27;20015;-80
2021/01/20 04:36:33;;;;;;;6.68;2.45;;;7.40;84.40;;;;;;5100275;28;20044;-80
2021/01/20 04:38:59;;;;;;;5.70;2.97;;;7.40;84.50;;;;;;5122604;27;20046;-79
2021/01/20 04:41:25;;;;;;;7.75;2.80;;;7.40;84.20;;;;;;5117674;27;20391;-80
2021/01/20 04:43:51;;;;;;;6.13;2.85;;;7.40;84.10;;;;;;5117600;27;20039;-80
2021/01/20 04:46:17;;;;;;;5.45;2.88;;;7.40;84.00;;;;;;5136055;27;20032;-80
2021/01/20 04:48:45;;;;;;;5.80;3.03;;;7.50;84.00;;;;;;5090697;28;20024;-77
2021/01/20 04:51:12;;;;;;;4.50;2.47;;;7.50;83.50;;;;;;5115460;28;20022;-78
2021/01/20 04:53:39;;;;;;;5.32;2.53;;;7.50;82.80;;;;;;5097230;28;20387;-77
2021/01/20 04:56:09;;;;;;;3.20;2.33;;;7.60;82.60;;;;;;5115207;28;20710;-77
2021/01/20 04:58:35;;;;;;;3.22;2.10;;;7.60;82.40;;;;;;5114276;28;20464;-77
2021/01/20 05:01:01;;;;;;;4.10;2.10;;;7.60;81.80;;;;;;5113904;28;20077;-77
2021/01/20 05:03:28;;;;;;;3.88;2.38;;;7.70;81.50;;;;;;5096970;28;20081;-77
2021/01/20 05:05:55;;;;;;;5.95;2.40;;;7.70;81.20;;;;;;5100060;28;20080;-77
2021/01/20 05:08:21;;;;;;;4.35;2.10;;;7.70;80.80;;;;;;5132980;27;20031;-77
2021/01/20 05:10:50;;;;;;;7.13;2.55;;;7.80;80.90;;;;;;5117505;27;20033;-77
2021/01/20 05:13:27;;;;;;;3.75;2.05;;;7.80;80.90;;;;;;5117141;27;20020;-77
2021/01/20 05:15:53;;;;;;;2.83;2.08;;;7.80;80.60;;;;;;5124518;27;20028;-77
2021/01/20 05:18:19;;;;;;;3.58;2.28;;;7.90;80.40;;;;;;5102951;28;20065;-77
2021/01/20 05:20:45;;;;;;;4.07;2.20;;;7.80;80.10;;;;;;5096461;28;20031;-77
2021/01/20 05:23:11;;;;;;;3.38;2.00;;;7.80;80.40;;;;;;5114447;28;20023;-77
2021/01/20 05:25:49;;;;;;;4.05;2.05;;;7.90;80.50;;;;;;5114402;28;20502;-78
2021/01/20 05:28:21;;;;;;;3.92;2.10;;;7.90;80.40;;;;;;5134333;27;20105;-78
2021/01/20 05:30:52;;;;;;;3.33;1.90;;;7.90;80.20;;;;;;5116733;27;20016;-77
2021/01/20 05:33:20;;;;;;;3.22;1.88;;;7.90;80.30;;;;;;5134705;27;20019;-78
2021/01/20 05:36:02;;;;;;;2.70;1.70;;;7.80;80.10;;;;;;5122289;27;20527;-78
2021/01/20 05:38:36;;;;;;;4.50;1.70;;;7.90;80.70;;;;;;5095924;28;20065;-77
2021/01/20 05:41:14;;;;;;;3.22;1.83;;;7.90;80.50;;;;;;5112899;28;20028;-77
2021/01/20 05:43:40;;;;;;;2.42;1.73;;;7.90;80.50;;;;;;5113961;28;20061;-78
2021/01/20 05:46:05;;;;;;;4.38;1.65;;;7.90;80.50;;;;;;5113222;28;20392;-78
2021/01/20 05:48:31;;;;;;;3.13;1.50;;;7.90;80.80;;;;;;5084716;28;20100;-77
2021/01/20 05:50:58;;;;;;;1.63;1.33;;;7.90;80.90;;;;;;5114455;28;20031;-77
2021/01/20 05:53:23;;;;;;;4.15;1.80;;;7.90;81.00;;;;;;5113890;28;20372;-77
2021/01/20 05:56:04;;;;;;;2.92;1.73;;;8.00;81.40;;;;;;5095940;28;20103;-77
2021/01/20 05:58:39;;;;;;;1.83;1.15;;;8.00;81.40;;;;;;5092577;28;20032;-78
2021/01/20 06:01:06;;;;;;;2.03;1.23;;;8.00;81.50;;;;;;5097847;27;20035;-77
2021/01/20 06:03:33;;;;;;;4.65;1.52;;;8.00;81.30;;;;;;5117149;27;20076;-77
2021/01/20 06:06:01;;;;;;;4.57;1.80;;;8.10;81.40;;;;;;5108632;28;20036;-77
2021/01/20 06:08:27;;;;;;;2.78;1.55;;;8.10;81.10;;;;;;5104224;27;20070;-77
2021/01/20 06:10:53;;;;;;;3.20;1.35;;;8.10;81.20;;;;;;5111566;28;20016;-77
2021/01/20 06:13:18;;;;;;;2.30;1.25;;;8.20;81.30;;;;;;5134415;27;20106;-77
2021/01/20 06:15:44;;;;;;;3.55;1.50;;;8.20;81.30;;;;;;5115925;27;20031;-77
2021/01/20 06:18:13;;;;;;;2.55;1.40;;;8.20;81.30;;;;;;5133732;27;20498;-77
2021/01/20 06:20:39;;;;;;;3.58;1.60;;;8.20;81.10;;;;;;5109983;27;20444;-77
2021/01/20 06:23:06;;;;;;;2.72;1.33;;;8.20;81.20;;;;;;5116181;28;20071;-77
2021/01/20 06:25:33;;;;;;;1.85;1.10;;;8.20;81.20;;;;;;5121735;27;20023;-77
2021/01/20 06:28:08;;;;;;;3.25;1.10;;;8.20;81.20;;;;;;5121398;27;20019;-79
2021/01/20 06:30:38;;;;;;;2.42;1.08;;;8.20;81.30;;;;;;5134344;27;20209;-80
2021/01/20 06:33:12;;;;;;;2.67;1.30;;;8.30;81.20;;;;;;5134340;28;20062;-79
2021/01/20 06:35:48;;;;;;;3.03;1.33;;;8.30;81.30;;;;;;5113824;28;20043;-79
2021/01/20 06:38:34;;;;;;;1.17;0.85;;;8.30;81.40;;;;;;5113646;28;20024;-80
2021/01/20 06:41:09;;;;;;;2.35;1.17;;;8.30;81.60;;;;;;5113503;28;20039;-79
2021/01/20 06:43:47;;;;;;;2.47;1.23;;;8.30;81.50;;;;;;5113573;28;20032;-79
2021/01/20 06:46:16;;;;;;;2.40;1.15;;;8.30;81.80;;;;;;5119036;28;20413;-79
2021/01/20 06:48:54;;;;;;;1.83;1.20;;;8.30;81.90;;;;;;5117744;28;20034;-79
2021/01/20 06:51:24;;;;;;;2.22;1.30;;;8.30;82.10;;;;;;5113283;28;20038;-79
2021/01/20 06:54:00;;;;;;;1.75;1.00;;;8.20;82.20;;;;;;5095241;28;20016;-80
2021/01/20 06:56:46;;;;;;;2.92;1.08;;;8.20;82.50;;;;;;5096080;28;20472;-79
2021/01/20 06:59:24;;;;;;;2.42;1.40;;;8.20;82.90;;;;;;5083233;28;20426;-79
2021/01/20 07:02:02;;;;;;;2.67;1.20;;;8.20;83.10;;;;;;5117535;28;20057;-79
2021/01/20 07:04:37;;;;;;;2.15;1.10;;;8.10;83.20;;;;;;5117518;28;20041;-79
2021/01/20 07:07:11;;;;;;;4.55;1.55;;;8.10;83.30;;;;;;5115988;28;20023;-79
2021/01/20 07:09:48;;;;;;;1.90;1.30;;;8.10;83.20;;;;;;5116031;28;20031;-79
2021/01/20 07:12:16;;;;;;;1.55;1.10;;;8.10;83.60;;;;;;5098969;28;20073;-79
2021/01/20 07:14:43;;;;;;;2.40;1.00;;;8.00;83.70;;;;;;5115528;27;20019;-79
2021/01/20 07:17:10;;;;;;;2.25;1.30;;;8.00;83.90;;;;;;5138217;27;20031;-80
2021/01/20 07:19:37;;;;;;;2.33;1.10;;;8.00;84.20;;;;;;5135973;27;20118;-79
2021/01/20 07:22:04;;;;;;;2.13;1.10;;;8.00;84.30;;;;;;5102295;27;20487;-80
2021/01/20 07:24:30;;;;;;;4.35;1.52;;;8.00;84.40;;;;;;5136500;27;20031;-79
2021/01/20 07:27:02;;;;;;;2.22;1.13;;;7.90;84.50;;;;;;5099967;27;20031;-78
2021/01/20 07:29:30;;;;;;;2.72;1.20;;;7.90;84.70;;;;;;5137566;27;20023;-78
2021/01/20 07:31:56;;;;;;;2.38;1.10;;;7.90;84.70;;;;;;5119313;27;20031;-79
2021/01/20 07:34:35;;;;;;;2.47;1.20;;;7.90;84.90;;;;;;5119285;27;20019;-78
2021/01/20 07:37:14;;;;;;;1.77;1.20;;;7.90;85.10;;;;;;5137215;27;20556;-78
2021/01/20 07:39:41;;;;;;;6.40;1.80;;;7.90;85.20;;;;;;5137412;27;20027;-79
2021/01/20 07:42:07;;;;;;;1.67;1.30;;;7.90;85.30;;;;;;5137340;27;20045;-78
2021/01/20 07:44:35;;;;;;;4.32;1.17;;;7.90;85.50;;;;;;5137327;27;20071;-78
2021/01/20 07:47:05;;;;;;;3.17;1.27;;;7.90;85.40;;;;;;5122614;27;20040;-78
2021/01/20 07:49:32;;;;;;;1.95;1.42;;;7.90;85.40;;;;;;5116560;28;20027;-78
2021/01/20 07:52:06;;;;;;;2.38;1.33;;;7.90;85.50;;;;;;5098256;28;20027;-79
2021/01/20 07:54:34;;;;;;;1.58;1.13;;;7.90;85.50;;;;;;5116501;28;20012;-78
2021/01/20 07:57:00;;;;;;;2.50;1.53;;;7.90;85.70;;;;;;5116378;28;20027;-79
2021/01/20 07:59:26;;;;;;;3.53;1.65;;;7.90;86.00;;;;;;5116180;28;20575;-78
2021/01/20 08:01:51;;;;;;;4.75;1.70;;;7.90;86.10;;;;;;5082991;28;20040;-78
2021/01/20 08:04:21;;;;;;;2.55;1.25;;;8.00;86.20;;;;;;5135733;27;20081;-78
2021/01/20 08:06:46;;;;;;;2.70;1.33;;;8.00;86.10;;;;;;5123784;27;20031;-78
2021/01/20 08:09:12;;;;;;;1.45;1.15;;;8.10;86.00;;;;;;5116204;28;20035;-78
2021/01/20 08:11:41;;;;;;;2.45;1.40;;;8.10;86.00;;;;;;5066052;27;20024;-78
2021/01/20 08:14:08;;;;;;;3.30;1.60;;;8.00;85.70;;;;;;5136520;27;20027;-78
2021/01/20 08:16:34;;;;;;;2.05;1.17;;;8.10;85.60;;;;;;5123354;27;20031;-80
2021/01/20 08:24:49;;;;;;;2.33;1.23;;;8.10;85.10;;;;;;5117230;27;20023;-79
2021/01/20 08:27:29;;;;;;;3.05;1.30;;;8.10;84.90;;;;;;5121328;27;20031;-79
2021/01/20 08:29:57;;;;;;;3.00;1.40;;;8.20;84.80;;;;;;5111299;28;20551;-79
2021/01/20 08:32:23;;;;;;;3.30;1.75;;;8.20;84.70;;;;;;5116402;27;20027;-79
2021/01/20 08:34:51;;;;;;;7.07;2.88;;;8.20;84.40;;;;;;5112112;27;20543;-79
2021/01/20 08:37:34;;;;;;;6.57;2.92;;;8.20;84.40;;;;;;5111394;27;20050;-80
2021/01/20 08:40:02;;;;;;;5.68;2.90;;;8.30;84.00;;;;;;5117653;27;20027;-79
2021/01/20 08:42:34;;;;;;;8.40;2.83;;;8.40;83.30;;;;;;5126428;27;20028;-80
2021/01/20 08:45:06;;;;;;;2.90;1.65;;;8.40;83.40;;;;;;5136093;27;20136;-80
2021/01/20 08:47:56;;;;;;;3.50;1.60;;;8.40;83.10;;;;;;5135741;27;20034;-77
2021/01/20 08:50:30;;;;;;;2.63;1.50;;;8.50;82.80;;;;;;5117380;27;20054;-77
2021/01/20 08:52:58;;;;;;;3.80;1.50;;;8.50;82.50;;;;;;5120414;27;20035;-77
2021/01/20 08:56:00;;;;;;;3.30;1.45;;;8.50;82.70;;;;;;5114785;28;20041;-77
2021/01/20 08:58:31;;;;;;;2.35;1.30;;;8.60;82.60;;;;;;5073227;28;20036;-76
2021/01/20 09:01:03;;;;;;;2.20;1.20;;;8.60;82.20;;;;;;5085052;27;20022;-76
2021/01/20 09:03:29;;;;;;;5.43;1.55;;;8.60;81.90;;;;;;5135342;27;20028;-77
2021/01/20 09:05:57;;;;;;;1.75;1.25;;;8.60;81.70;;;;;;5130693;27;20019;-77
2021/01/20 09:08:25;;;;;;;3.92;1.38;;;8.60;81.70;;;;;;5114273;28;20028;-76
2021/01/20 09:10:51;;;;;;;4.07;1.42;;;8.60;80.50;;;;;;5117559;27;20038;-77
2021/01/20 09:13:17;;;;;;;2.35;1.38;;;8.70;80.60;;;;;;5135097;27;20035;-77
2021/01/20 09:15:45;;;;;;;1.77;1.13;;;8.70;80.30;;;;;;5113762;27;20023;-76
2021/01/20 09:18:10;;;;;;;3.75;1.67;;;8.70;80.30;;;;;;5114523;28;20077;-76
2021/01/20 09:20:36;;;;;;;2.30;1.35;;;8.70;80.30;;;;;;5115483;27;20027;-76
2021/01/20 09:23:03;;;;;;;2.47;1.35;;;8.70;80.10;;;;;;5099614;27;20019;-78
2021/01/20 09:25:29;;;;;;;3.70;1.60;;;8.80;80.00;;;;;;5116314;27;20031;-78
2021/01/20 09:27:55;;;;;;;4.00;1.60;;;8.80;79.40;;;;;;5119060;27;20489;-78
2021/01/20 09:30:21;;;;;;;2.30;1.42;;;8.90;78.80;;;;;;5095558;28;20032;-78
2021/01/20 09:32:47;;;;;;;2.90;1.40;;;9.00;78.40;;;;;;5096438;28;20023;-78
2021/01/20 09:35:14;;;;;;;5.82;1.70;;;9.00;77.50;;;;;;5101484;28;20027;-78
2021/01/20 09:37:41;;;;;;;2.35;1.73;;;9.00;76.80;;;;;;5096703;28;20054;-78
2021/01/20 09:40:09;;;;;;;4.18;1.50;;;9.00;76.20;;;;;;5114103;28;20039;-78
2021/01/20 09:42:39;;;;;;;3.03;1.40;;;9.00;76.00;;;;;;5114080;28;20027;-78
2021/01/20 09:45:07;;;;;;;3.60;1.65;;;9.10;76.00;;;;;;5120248;27;20041;-78
2021/01/20 09:47:34;;;;;;;3.55;1.60;;;9.10;76.00;;;;;;5109416;28;20396;-78
2021/01/20 09:50:02;;;;;;;2.55;1.65;;;9.00;75.80;;;;;;5126855;27;20051;-78
2021/01/20 09:52:27;;;;;;;2.72;1.65;;;9.10;75.90;;;;;;5102095;27;20031;-78
2021/01/20 09:54:54;;;;;;;4.00;1.85;;;9.10;75.00;;;;;;5116792;27;20092;-78
2021/01/20 09:57:20;;;;;;;4.93;1.85;;;9.10;74.50;;;;;;5110744;27;20019;-78
2021/01/20 09:59:46;;;;;;;4.22;1.50;;;9.20;73.90;;;;;;5134949;27;20023;-78
2021/01/20 10:02:12;;;;;;;3.45;1.60;;;9.30;72.90;;;;;;5102345;27;20111;-78
2021/01/20 10:04:38;;;;;;;4.28;1.50;;;9.30;73.10;;;;;;5110972;28;20139;-78
2021/01/20 10:07:03;;;;;;;4.82;1.70;;;9.30;72.90;;;;;;5110625;28;20028;-78
2021/01/20 10:09:29;;;;;;;4.20;1.50;;;9.30;72.40;;;;;;5077845;28;20073;-78
2021/01/20 10:11:55;;;;;;;2.95;1.60;;;9.30;72.10;;;;;;5112733;28;20119;-78
2021/01/20 10:14:20;;;;;;;2.65;1.60;;;9.30;72.90;;;;;;5123461;27;20031;-78
2021/01/20 10:16:46;;;;;;;2.72;1.40;;;9.30;73.30;;;;;;5125055;27;20479;-78
2021/01/20 10:19:16;;;;;;;4.50;1.70;;;9.30;72.30;;;;;;5113097;27;20059;-78
2021/01/20 10:21:42;;;;;;;5.43;1.70;;;9.40;72.20;;;;;;5115561;27;20043;-78
2021/01/20 10:24:09;;;;;;;3.95;1.52;;;9.40;71.90;;;;;;5133980;27;20027;-78
2021/01/20 10:26:36;;;;;;;3.22;1.50;;;9.50;71.70;;;;;;5132306;27;20024;-78
2021/01/20 10:29:02;;;;;;;4.15;1.85;;;9.60;70.50;;;;;;5112957;28;20024;-78
2021/01/20 10:31:29;;;;;;;4.57;1.75;;;9.60;69.90;;;;;;5112763;28;20177;-78
2021/01/20 10:33:55;;;;;;;2.10;1.50;;;9.70;70.40;;;;;;5113368;28;20016;-79
2021/01/20 10:36:20;;;;;;;4.60;1.60;;;9.70;69.00;;;;;;5113252;28;20046;-78
2021/01/20 10:38:46;;;;;;;5.25;1.60;;;9.70;69.70;;;;;;5113588;28;20024;-78
2021/01/20 10:41:12;;;;;;;2.22;1.45;;;9.70;69.70;;;;;;5129671;28;20023;-78
2021/01/20 10:43:38;;;;;;;3.25;1.60;;;9.70;69.80;;;;;;5114969;27;20050;-78
2021/01/20 10:46:03;;;;;;;4.28;1.63;;;9.70;69.10;;;;;;5094920;28;20550;-78
2021/01/20 10:48:29;;;;;;;4.88;1.70;;;9.80;68.80;;;;;;5087866;28;20127;-78
2021/01/20 10:50:55;;;;;;;2.55;1.48;;;9.80;68.70;;;;;;5113660;28;20107;-78
2021/01/20 10:53:20;;;;;;;4.45;1.80;;;9.80;68.10;;;;;;5113288;28;20036;-78
2021/01/20 10:55:47;;;;;;;2.42;1.80;;;9.80;67.20;;;;;;5078716;28;20391;-77
2021/01/20 10:58:13;;;;;;;3.03;1.80;;;9.80;67.30;;;;;;5113997;28;20024;-78
2021/01/20 11:00:39;;;;;;;3.83;1.75;;;9.90;67.30;;;;;;5112971;28;20479;-78
2021/01/20 11:03:07;;;;;;;3.33;1.60;;;9.90;67.00;;;;;;5102050;28;20496;-78
2021/01/20 11:05:32;;;;;;;5.40;2.00;;;9.90;67.50;;;;;;5095162;28;20103;-78
2021/01/20 11:07:58;;;;;;;3.72;1.75;;;9.90;66.70;;;;;;5113177;28;20725;-78
2021/01/20 11:10:23;;;;;;;4.45;1.73;;;10.00;66.70;;;;;;5132699;27;20035;-78
2021/01/20 11:12:49;;;;;;;5.35;1.70;;;10.00;67.10;;;;;;5126021;28;20019;-78
2021/01/20 11:15:15;;;;;;;4.25;1.73;;;10.00;66.90;;;;;;5118907;28;20076;-78
2021/01/20 11:17:41;;;;;;;3.35;1.65;;;10.00;66.40;;;;;;5113236;28;20039;-79
2021/01/20 11:20:07;;;;;;;2.80;1.65;;;10.00;66.40;;;;;;5113165;28;20494;-78
2021/01/20 11:22:32;;;;;;;4.07;1.80;;;10.00;66.10;;;;;;5112826;28;20554;-79
2021/01/20 11:25:01;;;;;;;3.45;1.48;;;10.00;66.40;;;;;;5113078;28;20104;-77
2021/01/20 11:27:29;;;;;;;2.38;1.60;;;10.00;66.60;;;;;;5090335;28;20035;-78
2021/01/20 11:29:55;;;;;;;2.97;1.67;;;10.00;67.00;;;;;;5133354;27;20497;-78
2021/01/20 11:32:21;;;;;;;7.65;1.70;;;10.00;66.90;;;;;;5094895;28;20047;-78
2021/01/20 11:34:47;;;;;;;3.92;1.80;;;10.10;66.40;;;;;;5111891;28;20027;-79
2021/01/20 11:37:12;;;;;;;3.92;1.90;;;10.10;65.60;;;;;;5111464;28;20537;-79
2021/01/20 11:39:38;;;;;;;3.92;1.40;;;10.20;65.80;;;;;;5111681;28;20031;-79
2021/01/20 11:42:04;;;;;;;3.58;1.70;;;10.20;65.70;;;;;;5116591;28;20026;-75
2021/01/20 11:44:30;;;;;;;4.45;1.70;;;10.20;65.50;;;;;;5116900;27;20115;-74
2021/01/20 11:46:55;;;;;;;4.70;1.70;;;10.30;65.30;;;;;;5124911;27;20114;-74
2021/01/20 11:49:21;;;;;;;2.10;1.30;;;10.40;65.70;;;;;;5096880;27;20501;-74
2021/01/20 11:51:46;;;;;;;5.30;1.60;;;10.40;65.20;;;;;;5097928;28;20028;-75
2021/01/20 11:54:12;;;;;;;5.15;1.63;;;10.50;64.30;;;;;;5096965;28;20036;-74
2021/01/20 11:56:38;;;;;;;2.13;1.48;;;10.60;64.20;;;;;;5115718;28;20030;-75
2021/01/20 11:59:04;;;;;;;5.22;1.50;;;10.60;63.70;;;;;;5115192;28;20614;-75
2021/01/20 12:01:33;;;;;;;3.08;1.15;;;10.70;62.90;;;;;;5104268;28;20034;-74
2021/01/20 12:03:59;;;;;;;;;;;11.00;62.40;;;;;;5117025;27;20032;-74
2021/01/20 12:06:25;;;;;;;5.15;1.60;;;11.40;60.50;;;;;;5098946;28;19918;-74
2021/01/20 12:08:50;;;;;;;7.78;1.80;;;11.70;59.60;;;;;;5104852;27;20032;-74
2021/01/20 12:11:16;;;;;;;3.53;1.40;;;12.00;57.80;;;;;;5067810;28;20028;-75
2021/01/20 12:13:42;;;;;;;3.30;1.70;;;12.00;58.70;;;;;;5087374;28;20076;-74
2021/01/20 12:16:07;;;;;;;3.38;1.40;;;11.90;59.20;;;;;;5103625;28;20051;-74
2021/01/20 12:18:33;;;;;;;2.05;1.23;;;11.60;59.60;;;;;;5085526;28;20072;-73
2021/01/20 12:20:59;;;;;;;3.53;1.63;;;11.40;60.70;;;;;;5104529;28;20161;-74
2021/01/20 12:23:26;;;;;;;2.75;1.38;;;11.20;60.60;;;;;;5085499;28;20046;-74
2021/01/20 12:25:52;;;;;;;2.75;1.52;;;11.10;60.90;;;;;;5112810;27;20046;-73
2021/01/20 12:28:18;;;;;;;3.67;1.50;;;11.10;60.00;;;;;;5084464;28;20039;-73
2021/01/20 12:30:44;;;;;;;3.13;1.60;;;11.10;60.20;;;;;;5121921;27;20027;-74
2021/01/20 12:33:09;;;;;;;6.20;1.55;;;11.20;60.50;;;;;;5097295;28;20024;-74
2021/01/20 12:35:35;;;;;;;5.22;1.75;;;11.20;60.70;;;;;;5097173;28;20353;-74
2021/01/20 12:38:03;;;;;;;2.88;1.60;;;11.20;60.90;;;;;;5080185;28;20052;-74
2021/01/20 12:40:29;;;;;;;2.78;1.55;;;11.20;60.40;;;;;;5097055;28;20020;-74
2021/01/20 12:42:54;;;;;;;4.32;1.70;;;11.20;60.60;;;;;;5096616;28;20107;-74
2021/01/20 12:45:20;;;;;;;3.17;1.45;;;11.30;60.70;;;;;;5111199;28;20077;-74
2021/01/20 12:47:46;;;;;;;3.70;1.63;;;11.20;60.60;;;;;;5096715;28;20027;-74
2021/01/20 12:50:12;;;;;;;4.00;1.70;;;11.20;61.50;;;;;;5115034;28;20495;-74
2021/01/20 12:52:38;;;;;;;3.83;1.67;;;11.10;60.90;;;;;;5114615;28;20035;-74
2021/01/20 12:55:04;;;;;;;3.33;1.40;;;11.10;60.90;;;;;;5104418;28;20028;-74
2021/01/20 12:57:30;;;;;;;4.00;1.65;;;11.10;61.50;;;;;;5114858;28;20483;-74
2021/01/20 12:59:55;;;;;;;4.78;2.35;;;11.10;62.10;;;;;;5096762;28;20031;-74
2021/01/20 13:02:21;;;;;;;2.97;1.70;;;11.10;62.10;;;;;;5104033;28;20039;-74
2021/01/20 13:04:47;;;;;;;6.63;1.70;;;11.10;61.30;;;;;;5096790;28;20027;-74